createdAt,value
2019-06-01T00:00:13.531Z,95924.61
2019-06-01T00:02:45.256Z,95926.04
2019-06-01T00:05:14.566Z,95936.07
2019-06-01T00:07:44.921Z,95934.61
2019-06-01T00:10:14.892Z,95927.88
2019-06-01T00:15:34.212Z,95928.97
2019-06-01T00:18:03.063Z,95928.33
2019-06-01T00:20:31.953Z,95928.57
2019-06-01T00:23:00.951Z,95927.77
2019-06-01T00:25:29.841Z,95929.92
2019-06-01T00:27:59.859Z,95929.05
2019-06-01T00:30:28.652Z,95928.57
2019-06-01T00:32:57.538Z,95929.74
2019-06-01T00:35:26.432Z,95925.02
2019-06-01T00:37:55.318Z,95923.70
2019-06-01T00:40:24.209Z,95918.00
2019-06-01T00:42:53.120Z,95924.23
2019-06-01T00:45:23.428Z,95911.70
2019-06-01T00:47:52.992Z,95918.00
2019-06-01T00:50:21.929Z,95911.98
2019-06-01T00:52:51.404Z,95913.50
2019-06-01T00:55:20.324Z,95921.59
2019-06-01T00:57:49.786Z,95921.92
2019-06-01T01:00:18.820Z,95924.67
2019-06-01T01:02:48.074Z,95922.72
2019-06-01T01:05:19.986Z,95920.28
2019-06-01T01:07:48.944Z,95925.80
2019-06-01T01:10:17.878Z,95923.74
2019-06-01T01:13:06.805Z,95923.56
2019-06-01T01:15:36.490Z,95921.88
2019-06-01T01:18:07.068Z,95918.95
2019-06-01T01:20:37.144Z,95915.43
2019-06-01T01:23:08.393Z,95922.11
2019-06-01T01:25:37.541Z,95920.66
2019-06-01T01:28:06.733Z,95917.36
2019-06-01T01:30:35.928Z,95918.56
2019-06-01T01:33:04.935Z,95918.56
2019-06-01T01:35:33.817Z,95920.63
2019-06-01T01:38:02.709Z,95912.92
2019-06-01T01:40:31.599Z,95913.78
2019-06-01T01:43:00.497Z,95911.44
2019-06-01T01:45:29.484Z,95907.38
2019-06-01T01:47:59.415Z,95908.05
2019-06-01T01:50:28.890Z,95911.95
2019-06-01T01:52:58.984Z,95913.08
2019-06-01T01:55:29.249Z,95908.98
2019-06-01T01:57:59.420Z,95912.19
2019-06-01T02:00:46.177Z,95910.98
2019-06-01T02:03:15.187Z,95912.64
2019-06-01T02:05:45.193Z,95912.36
2019-06-01T02:08:14.186Z,95910.41
2019-06-01T02:10:43.073Z,95909.00
2019-06-01T02:13:12.074Z,95902.70
2019-06-01T02:15:42.495Z,95899.23
2019-06-01T02:18:11.695Z,95900.55
2019-06-01T02:20:40.587Z,95892.94
2019-06-01T02:23:09.680Z,95896.55
2019-06-01T02:25:38.570Z,95897.02
2019-06-01T02:28:08.366Z,95899.09
2019-06-01T02:30:37.184Z,95900.59
2019-06-01T02:33:06.270Z,95905.00
2019-06-01T02:35:35.161Z,95898.77
2019-06-01T02:38:05.827Z,95897.27
2019-06-01T02:40:36.433Z,95902.70
2019-06-01T02:43:06.662Z,95894.91
2019-06-01T02:45:36.158Z,95900.17
2019-06-01T02:48:06.407Z,95896.88
2019-06-01T02:50:35.674Z,95900.00
2019-06-01T02:53:05.772Z,95897.94
2019-06-01T02:55:34.895Z,95898.57
2019-06-01T02:58:04.355Z,95898.41
2019-06-01T03:00:48.647Z,95897.05
2019-06-01T03:03:18.339Z,95890.73
2019-06-01T03:05:48.023Z,95898.39
2019-06-01T03:08:19.203Z,95900.12
2019-06-01T03:10:50.598Z,95899.98
2019-06-01T03:13:21.919Z,95902.56
2019-06-01T03:15:53.676Z,95900.78
2019-06-01T03:18:24.916Z,95905.30
2019-06-01T03:20:56.706Z,95915.47
2019-06-01T03:23:27.665Z,95912.12
2019-06-01T03:25:57.222Z,95914.73
2019-06-01T03:28:27.544Z,95923.19
2019-06-01T03:30:56.540Z,95920.56
2019-06-01T03:33:25.432Z,95919.53
2019-06-01T03:35:54.323Z,95917.05
2019-06-01T03:38:23.317Z,95919.70
2019-06-01T03:40:52.207Z,95922.16
2019-06-01T03:43:22.428Z,95916.23
2019-06-01T03:45:51.321Z,95916.33
2019-06-01T03:48:21.647Z,95917.83
2019-06-01T03:50:50.542Z,95918.08
2019-06-01T03:53:19.431Z,95926.70
2019-06-01T03:55:48.325Z,95921.22
2019-06-01T03:58:17.211Z,95928.41
2019-06-01T04:00:48.921Z,95925.33
2019-06-01T04:03:17.861Z,95924.45
2019-06-01T04:05:46.750Z,95925.59
2019-06-01T04:08:15.746Z,95927.19
2019-06-01T04:10:44.645Z,95928.22
2019-06-01T04:13:13.529Z,95931.78
2019-06-01T04:15:43.546Z,95930.55
2019-06-01T04:18:13.903Z,95930.05
2019-06-01T04:20:42.969Z,95931.53
2019-06-01T04:23:12.446Z,95928.67
2019-06-01T04:25:41.262Z,95926.39
2019-06-01T04:28:13.225Z,95929.76
2019-06-01T04:30:42.118Z,95926.27
2019-06-01T04:33:13.170Z,95933.36
2019-06-01T04:35:42.154Z,95930.22
2019-06-01T04:38:11.761Z,95933.66
2019-06-01T04:40:40.643Z,95934.27
2019-06-01T04:43:10.186Z,95934.05
2019-06-01T04:45:39.153Z,95934.12
2019-06-01T04:48:08.445Z,95929.07
2019-06-01T04:50:37.343Z,95933.95
2019-06-01T04:53:06.843Z,95934.30
2019-06-01T04:55:35.942Z,95929.76
2019-06-01T04:58:05.143Z,95931.04
2019-06-01T05:00:34.039Z,95934.23
2019-06-01T05:03:06.710Z,95930.87
2019-06-01T05:05:33.463Z,95927.41
2019-06-01T05:08:02.345Z,95928.33
2019-06-01T05:10:32.772Z,95927.76
2019-06-01T05:13:01.666Z,95933.24
2019-06-01T05:15:30.554Z,95931.33
2019-06-01T05:17:59.447Z,95937.61
2019-06-01T05:20:29.461Z,95936.02
2019-06-01T05:22:58.355Z,95939.22
2019-06-01T05:25:27.245Z,95939.20
2019-06-01T05:27:56.246Z,95941.04
2019-06-01T05:30:25.227Z,95939.48
2019-06-01T05:32:54.126Z,95940.11
2019-06-01T05:35:23.015Z,95934.03
2019-06-01T05:37:51.921Z,95939.22
2019-06-01T05:40:20.741Z,95941.18
2019-06-01T05:42:49.592Z,95942.03
2019-06-01T05:45:19.260Z,95941.05
2019-06-01T05:47:48.197Z,95931.55
2019-06-01T05:50:18.464Z,95937.64
2019-06-01T05:52:47.508Z,95934.31
2019-06-01T05:55:16.794Z,95939.83
2019-06-01T05:57:45.800Z,95937.62
2019-06-01T06:00:15.154Z,95945.13
2019-06-01T06:02:44.099Z,95936.42
2019-06-01T06:05:14.613Z,95932.72
2019-06-01T06:07:43.722Z,95935.33
2019-06-01T06:10:14.153Z,95938.95
2019-06-01T06:12:43.051Z,95928.49
2019-06-01T06:15:13.561Z,95930.92
2019-06-01T06:17:42.458Z,95932.53
2019-06-01T06:20:12.066Z,95933.53
2019-06-01T06:22:41.378Z,95934.42
2019-06-01T06:25:10.986Z,95929.31
2019-06-01T06:27:39.871Z,95939.91
2019-06-01T06:30:08.948Z,95936.12
2019-06-01T06:32:37.871Z,95939.33
2019-06-01T06:35:06.957Z,95940.84
2019-06-01T06:37:35.841Z,95944.78
2019-06-01T06:40:07.657Z,95946.69
2019-06-01T06:42:38.136Z,95943.91
2019-06-01T06:45:07.433Z,95952.66
2019-06-01T06:47:36.327Z,95946.42
2019-06-01T06:50:06.422Z,95947.66
2019-06-01T06:52:35.233Z,95953.50
2019-06-01T06:55:04.916Z,95945.70
2019-06-01T06:57:33.734Z,95948.98
2019-06-01T07:00:02.631Z,95943.67
2019-06-01T07:02:31.528Z,95948.00
2019-06-01T07:05:00.301Z,95940.75
2019-06-01T07:07:29.209Z,95942.20
2019-06-01T07:09:58.194Z,95943.53
2019-06-01T07:12:27.510Z,95935.56
2019-06-01T07:14:56.493Z,95939.56
2019-06-01T07:17:25.633Z,95937.19
2019-06-01T07:19:54.675Z,95940.17
2019-06-01T07:22:23.885Z,95933.33
2019-06-01T07:24:52.768Z,95937.97
2019-06-01T07:27:22.009Z,95939.03
2019-06-01T07:29:50.954Z,95933.30
2019-06-01T07:32:22.043Z,95933.32
2019-06-01T07:34:50.992Z,95928.59
2019-06-01T07:37:20.630Z,95932.13
2019-06-01T07:39:49.851Z,95931.12
2019-06-01T07:42:24.493Z,95927.41
2019-06-01T07:44:51.062Z,95933.84
2019-06-01T07:47:20.806Z,95934.20
2019-06-01T07:49:49.762Z,95928.94
2019-06-01T07:52:20.149Z,95928.67
2019-06-01T07:54:49.184Z,95933.13
2019-06-01T07:57:18.079Z,95931.53
2019-06-01T07:59:47.286Z,95926.29
2019-06-01T08:02:16.678Z,95923.17
2019-06-01T08:04:53.577Z,95918.37
2019-06-01T08:07:16.302Z,95918.46
2019-06-01T08:09:45.195Z,95913.43
2019-06-01T08:12:14.070Z,95919.17
2019-06-01T08:14:42.979Z,95915.95
2019-06-01T08:17:12.276Z,95914.63
2019-06-01T08:19:41.271Z,95913.75
2019-06-01T08:22:10.697Z,95907.22
2019-06-01T08:24:39.574Z,95905.20
2019-06-01T08:27:09.532Z,95907.06
2019-06-01T08:29:38.536Z,95902.34
2019-06-01T08:32:08.594Z,95906.28
2019-06-01T08:34:37.487Z,95909.02
2019-06-01T08:37:06.377Z,95904.77
2019-06-01T08:39:35.268Z,95901.06
2019-06-01T08:42:04.266Z,95891.30
2019-06-01T08:44:33.780Z,95898.91
2019-06-01T08:47:02.767Z,95899.91
2019-06-01T08:49:32.541Z,95904.19
2019-06-01T08:52:01.566Z,95901.86
2019-06-01T08:54:30.464Z,95904.03
2019-06-01T08:56:59.352Z,95895.28
2019-06-01T08:59:28.425Z,95897.41
2019-06-01T09:01:57.353Z,95899.78
2019-06-01T09:04:26.609Z,95895.55
2019-06-01T09:06:55.528Z,95902.45
2019-06-01T09:09:24.971Z,95896.61
2019-06-01T09:11:53.926Z,95898.47
2019-06-01T09:14:22.930Z,95893.93
2019-06-01T09:16:53.244Z,95896.27
2019-06-01T09:19:22.139Z,95900.25
2019-06-01T09:21:51.027Z,95893.37
2019-06-01T09:24:20.028Z,95894.87
2019-06-01T09:26:48.805Z,95891.25
2019-06-01T09:29:17.599Z,95896.59
2019-06-01T09:31:46.492Z,95892.31
2019-06-01T09:34:15.381Z,95898.36
2019-06-01T09:36:44.271Z,95905.27
2019-06-01T09:39:13.163Z,95905.21
2019-06-01T09:41:42.055Z,95900.65
2019-06-01T09:44:12.081Z,95910.24
2019-06-01T09:46:40.962Z,95899.03
2019-06-01T09:49:10.778Z,95907.01
2019-06-01T09:51:39.668Z,95905.45
2019-06-01T09:54:08.865Z,95899.03
2019-06-01T09:56:39.835Z,95898.74
2019-06-01T09:59:09.093Z,95903.73
2019-06-01T10:01:38.901Z,95895.42
2019-06-01T10:04:09.840Z,95905.75
2019-06-01T10:06:38.793Z,95901.55
2019-06-01T10:09:09.490Z,95903.91
2019-06-01T10:11:38.374Z,95900.55
2019-06-01T10:14:07.778Z,95902.26
2019-06-01T10:16:36.873Z,95901.88
2019-06-01T10:19:05.767Z,95895.34
2019-06-01T10:21:36.205Z,95895.50
2019-06-01T10:24:05.351Z,95892.92
2019-06-01T10:26:35.641Z,95892.41
2019-06-01T10:29:04.914Z,95887.77
2019-06-01T10:31:34.679Z,95889.11
2019-06-01T10:34:05.599Z,95886.45
2019-06-01T10:36:34.588Z,95882.16
2019-06-01T10:39:03.972Z,95882.22
2019-06-01T10:41:33.238Z,95876.16
2019-06-01T10:44:02.275Z,95876.95
2019-06-01T10:46:31.804Z,95883.36
2019-06-01T10:49:00.857Z,95873.27
2019-06-01T10:51:29.748Z,95875.22
2019-06-01T10:53:58.638Z,95872.25
2019-06-01T10:56:27.634Z,95875.24
2019-06-01T10:59:00.325Z,95866.61
2019-06-01T11:01:27.053Z,95858.09
2019-06-01T11:03:55.947Z,95855.88
2019-06-01T11:06:36.814Z,95853.69
2019-06-01T11:08:55.576Z,95849.88
2019-06-01T11:11:24.462Z,95846.05
2019-06-01T11:13:53.357Z,95850.77
2019-06-01T11:16:22.243Z,95851.81
2019-06-01T11:18:51.136Z,95844.44
2019-06-01T11:21:20.159Z,95847.98
2019-06-01T11:23:49.025Z,95849.40
2019-06-01T11:26:17.911Z,95842.36
2019-06-01T11:28:46.803Z,95837.47
2019-06-01T11:31:15.591Z,95840.66
2019-06-01T11:33:44.505Z,95835.68
2019-06-01T11:36:13.373Z,95835.68
2019-06-01T11:38:42.585Z,95840.08
2019-06-01T11:41:12.386Z,95827.56
2019-06-01T11:43:42.653Z,95828.97
2019-06-01T11:46:11.808Z,95826.32
2019-06-01T11:48:41.435Z,95826.23
2019-06-01T11:51:10.817Z,95815.41
2019-06-01T11:53:40.288Z,95811.41
2019-06-01T11:56:11.260Z,95811.41
2019-06-01T11:58:41.320Z,95809.11
2019-06-01T12:01:11.203Z,95801.37
2019-06-01T12:03:40.087Z,95791.55
2019-06-01T12:06:09.592Z,95798.77
2019-06-01T12:08:39.873Z,95792.96
2019-06-01T12:11:09.938Z,95788.83
2019-06-01T12:13:40.138Z,95786.10
2019-06-01T12:16:09.765Z,95786.90
2019-06-01T12:18:38.659Z,95787.67
2019-06-01T12:21:09.190Z,95774.74
2019-06-01T12:23:38.983Z,95768.92
2019-06-01T12:26:08.823Z,95766.92
2019-06-01T12:28:37.704Z,95765.34
2019-06-01T12:31:06.492Z,95766.03
2019-06-01T12:33:35.389Z,95765.47
2019-06-01T12:36:04.280Z,95761.51
2019-06-01T12:38:34.704Z,95761.55
2019-06-01T12:41:03.600Z,95760.08
2019-06-01T12:43:32.485Z,95752.77
2019-06-01T12:46:07.176Z,95756.56
2019-06-01T12:48:32.117Z,95750.55
2019-06-01T12:51:01.003Z,95745.63
2019-06-01T12:53:29.895Z,95745.76
2019-06-01T12:55:58.783Z,95741.06
2019-06-01T12:58:27.679Z,95736.37
2019-06-01T13:00:56.566Z,95738.53
2019-06-01T13:03:25.456Z,95737.74
2019-06-01T13:05:54.350Z,95741.28
2019-06-01T13:08:23.248Z,95740.95
2019-06-01T13:10:52.132Z,95738.17
2019-06-01T13:13:41.220Z,95733.75
2019-06-01T13:16:11.419Z,95735.02
2019-06-01T13:18:41.182Z,95737.50
2019-06-01T13:21:10.637Z,95728.82
2019-06-01T13:23:39.530Z,95726.70
2019-06-01T13:26:08.643Z,95728.11
2019-06-01T13:28:38.460Z,95730.22
2019-06-01T13:31:09.221Z,95731.70
2019-06-01T13:33:38.219Z,95729.20
2019-06-01T13:36:07.464Z,95724.95
2019-06-01T13:38:36.358Z,95723.70
2019-06-01T13:41:05.451Z,95713.58
2019-06-01T13:43:34.343Z,95714.00
2019-06-01T13:46:06.318Z,95713.02
2019-06-01T13:48:33.766Z,95707.79
2019-06-01T13:51:02.553Z,95706.78
2019-06-01T13:53:31.442Z,95702.60
2019-06-01T13:56:00.230Z,95696.30
2019-06-01T13:58:29.225Z,95703.89
2019-06-01T14:00:58.117Z,95698.98
2019-06-01T14:03:27.013Z,95693.30
2019-06-01T14:05:55.901Z,95689.36
2019-06-01T14:08:28.811Z,95682.77
2019-06-01T14:10:55.528Z,95685.58
2019-06-01T14:13:24.518Z,95678.75
2019-06-01T14:15:53.643Z,95685.70
2019-06-01T14:18:22.713Z,95682.96
2019-06-01T14:20:51.844Z,95683.06
2019-06-01T14:23:20.902Z,95683.44
2019-06-01T14:25:50.242Z,95675.80
2019-06-01T14:28:19.197Z,95684.34
2019-06-01T14:30:48.447Z,95673.86
2019-06-01T14:33:17.418Z,95674.11
2019-06-01T14:35:46.590Z,95667.78
2019-06-01T14:38:15.585Z,95668.41
2019-06-01T14:40:44.477Z,95668.48
2019-06-01T14:43:13.365Z,95665.09
2019-06-01T14:45:42.257Z,95661.30
2019-06-01T14:48:12.752Z,95661.45
2019-06-01T14:50:41.575Z,95663.16
2019-06-01T14:53:11.077Z,95660.71
2019-06-01T14:55:39.977Z,95663.22
2019-06-01T14:58:09.725Z,95658.86
2019-06-01T15:00:40.109Z,95652.57
2019-06-01T15:03:09.920Z,95647.91
2019-06-01T15:05:38.702Z,95652.23
2019-06-01T15:08:08.485Z,95642.45
2019-06-01T15:10:37.318Z,95645.55
2019-06-01T15:13:06.320Z,95643.26
2019-06-01T15:15:35.279Z,95640.80
2019-06-01T15:18:05.366Z,95642.27
2019-06-01T15:20:34.238Z,95639.98
2019-06-01T15:23:03.630Z,95638.11
2019-06-01T15:25:32.608Z,95634.46
2019-06-01T15:28:01.542Z,95621.52
2019-06-01T15:30:30.493Z,95624.34
2019-06-01T15:32:59.395Z,95628.98
2019-06-01T15:35:28.273Z,95626.05
2019-06-01T15:38:00.623Z,95623.90
2019-06-01T15:40:27.795Z,95623.58
2019-06-01T15:42:57.312Z,95622.75
2019-06-01T15:45:26.243Z,95621.33
2019-06-01T15:47:55.532Z,95618.84
2019-06-01T15:50:24.487Z,95618.24
2019-06-01T15:52:54.580Z,95618.66
2019-06-01T15:55:23.807Z,95612.63
2019-06-01T15:57:52.695Z,95610.13
2019-06-01T16:00:21.896Z,95609.31
2019-06-01T16:02:50.785Z,95608.05
2019-06-01T16:05:19.883Z,95603.45
2019-06-01T16:07:48.772Z,95609.66
2019-06-01T16:10:17.665Z,95598.00
2019-06-01T16:12:46.555Z,95594.48
2019-06-01T16:15:15.737Z,95589.89
2019-06-01T16:17:44.542Z,95586.64
2019-06-01T16:20:13.845Z,95579.28
2019-06-01T16:22:44.270Z,95580.55
2019-06-01T16:25:13.266Z,95579.50
2019-06-01T16:27:42.259Z,95584.02
2019-06-01T16:30:12.950Z,95584.45
2019-06-01T16:32:41.994Z,95580.08
2019-06-01T16:35:11.389Z,95575.25
2019-06-01T16:37:40.283Z,95576.64
2019-06-01T16:40:11.046Z,95581.61
2019-06-01T16:42:40.009Z,95580.50
2019-06-01T16:45:10.737Z,95575.30
2019-06-01T16:47:39.538Z,95573.22
2019-06-01T16:50:10.364Z,95570.45
2019-06-01T16:52:39.320Z,95577.20
2019-06-01T16:55:11.548Z,95576.65
2019-06-01T16:57:40.526Z,95576.55
2019-06-01T17:00:15.539Z,95578.58
2019-06-01T17:02:44.454Z,95572.70
2019-06-01T17:05:14.638Z,95573.20
2019-06-01T17:07:43.518Z,95574.17
2019-06-01T17:10:25.887Z,95575.39
2019-06-01T17:12:45.545Z,95571.52
2019-06-01T17:15:16.634Z,95578.31
2019-06-01T17:17:45.479Z,95572.19
2019-06-01T17:20:39.990Z,95577.48
2019-06-01T17:23:26.352Z,95576.49
2019-06-01T17:25:40.825Z,95565.97
2019-06-01T17:28:11.005Z,95572.06
2019-06-01T17:30:40.041Z,95573.92
2019-06-01T17:33:11.128Z,95568.34
2019-06-01T17:35:41.310Z,95569.55
2019-06-01T17:38:12.222Z,95573.58
2019-06-01T17:40:43.189Z,95571.69
2019-06-01T17:43:13.171Z,95575.77
2019-06-01T17:45:42.342Z,95576.57
2019-06-01T17:48:24.669Z,95577.94
2019-06-01T17:50:42.539Z,95576.94
2019-06-01T17:53:13.059Z,95578.50
2019-06-01T17:55:42.495Z,95582.45
2019-06-01T17:58:12.670Z,95584.11
2019-06-01T18:00:42.199Z,95580.63
2019-06-01T18:03:12.330Z,95580.17
2019-06-01T18:05:41.322Z,95582.45
2019-06-01T18:08:12.389Z,95573.81
2019-06-01T18:10:53.876Z,95582.68
2019-06-01T18:13:14.884Z,95581.99
2019-06-01T18:15:44.052Z,95579.77
2019-06-01T18:18:13.173Z,95577.81
2019-06-01T18:20:42.134Z,95588.03
2019-06-01T18:23:13.230Z,95583.34
2019-06-01T18:25:42.375Z,95583.85
2019-06-01T18:28:16.194Z,95576.16
2019-06-01T18:30:42.618Z,95571.70
2019-06-01T18:33:13.189Z,95568.94
2019-06-01T18:35:42.286Z,95570.09
2019-06-01T18:38:12.954Z,95566.34
2019-06-01T18:40:41.969Z,95568.41
2019-06-01T18:43:14.445Z,95564.14
2019-06-01T18:45:44.333Z,95566.99
2019-06-01T18:48:14.951Z,95565.41
2019-06-01T18:50:44.124Z,95565.95
2019-06-01T18:53:14.183Z,95568.02
2019-06-01T18:55:43.254Z,95564.75
2019-06-01T18:58:12.570Z,95560.85
2019-06-01T19:00:41.994Z,95565.10
2019-06-01T19:03:13.508Z,95567.03
2019-06-01T19:05:42.382Z,95572.70
2019-06-01T19:08:11.992Z,95567.19
2019-06-01T19:10:40.923Z,95571.71
2019-06-01T19:13:11.683Z,95567.91
2019-06-01T19:15:40.834Z,95571.16
2019-06-01T19:18:10.575Z,95570.08
2019-06-01T19:20:39.488Z,95572.50
2019-06-01T19:23:08.780Z,95571.79
2019-06-01T19:25:37.679Z,95568.02
2019-06-01T19:28:08.829Z,95567.06
2019-06-01T19:30:59.737Z,95567.18
2019-06-01T19:33:28.827Z,95569.14
2019-06-01T19:35:58.722Z,95578.97
2019-06-01T19:38:29.722Z,95580.13
2019-06-01T19:40:58.593Z,95586.02
2019-06-01T19:43:27.565Z,95590.02
2019-06-01T19:45:56.460Z,95590.55
2019-06-01T19:48:25.349Z,95602.45
2019-06-01T19:50:54.150Z,95600.44
2019-06-01T19:53:24.156Z,95594.05
2019-06-01T19:55:53.047Z,95606.77
2019-06-01T19:58:22.374Z,95606.30
2019-06-01T20:00:51.342Z,95611.70
2019-06-01T20:03:22.214Z,95612.00
2019-06-01T20:05:50.799Z,95607.22
2019-06-01T20:08:19.651Z,95606.95
2019-06-01T20:10:48.543Z,95607.69
2019-06-01T20:13:17.435Z,95612.95
2019-06-01T20:15:46.619Z,95604.69
2019-06-01T20:18:16.936Z,95611.21
2019-06-01T20:20:46.161Z,95611.49
2019-06-01T20:23:15.351Z,95615.20
2019-06-01T20:25:44.353Z,95618.87
2019-06-01T20:28:13.631Z,95616.52
2019-06-01T20:30:42.546Z,95617.09
2019-06-01T20:33:13.943Z,95616.20
2019-06-01T20:35:43.042Z,95627.32
2019-06-01T20:38:12.591Z,95620.93
2019-06-01T20:40:41.702Z,95626.25
2019-06-01T20:43:12.250Z,95625.45
2019-06-01T20:45:41.212Z,95633.77
2019-06-01T20:48:11.734Z,95635.94
2019-06-01T20:50:41.558Z,95639.13
2019-06-01T20:53:10.766Z,95637.27
2019-06-01T20:55:39.686Z,95641.45
2019-06-01T20:58:09.257Z,95644.67
2019-06-01T21:00:38.148Z,95637.77
2019-06-01T21:03:07.962Z,95640.71
2019-06-01T21:05:36.853Z,95639.88
2019-06-01T21:08:05.933Z,95639.88
2019-06-01T21:10:34.841Z,95647.00
2019-06-01T21:13:07.643Z,95639.42
2019-06-01T21:15:34.260Z,95644.11
2019-06-01T21:18:03.164Z,95647.94
2019-06-01T21:20:32.040Z,95658.31
2019-06-01T21:23:00.932Z,95654.86
2019-06-01T21:25:29.928Z,95658.51
2019-06-01T21:28:00.365Z,95660.67
2019-06-01T21:30:29.286Z,95654.98
2019-06-01T21:32:58.235Z,95652.31
2019-06-01T21:35:27.136Z,95652.38
2019-06-01T21:37:57.352Z,95651.80
2019-06-01T21:40:26.345Z,95650.43
2019-06-01T21:43:03.308Z,95651.47
2019-06-01T21:45:25.878Z,95654.62
2019-06-01T21:47:56.090Z,95656.69
2019-06-01T21:50:25.967Z,95658.86
2019-06-01T21:52:55.001Z,95656.56
2019-06-01T21:55:24.460Z,95659.89
2019-06-01T21:57:53.434Z,95656.17
2019-06-01T22:00:39.288Z,95657.86
2019-06-01T22:03:09.510Z,95657.27
2019-06-01T22:05:38.400Z,95651.78
2019-06-01T22:08:07.991Z,95657.91
2019-06-01T22:10:36.806Z,95654.48
2019-06-01T22:13:18.043Z,95651.30
2019-06-01T22:15:36.421Z,95650.98
2019-06-01T22:18:05.627Z,95645.72
2019-06-01T22:20:34.514Z,95653.38
2019-06-01T22:23:03.404Z,95651.24
2019-06-01T22:25:32.295Z,95656.08
2019-06-01T22:28:01.188Z,95652.59
2019-06-01T22:30:30.088Z,95651.58
2019-06-01T22:32:59.031Z,95655.27
2019-06-01T22:35:29.396Z,95653.39
2019-06-01T22:37:58.292Z,95658.94
2019-06-01T22:40:27.380Z,95662.17
2019-06-01T22:42:56.378Z,95656.87
2019-06-01T22:45:26.943Z,95656.61
2019-06-01T22:47:55.902Z,95657.66
2019-06-01T22:50:24.894Z,95658.22
2019-06-01T22:52:56.548Z,95652.91
2019-06-01T22:55:26.318Z,95653.47
2019-06-01T22:57:55.256Z,95656.61
2019-06-01T23:00:24.149Z,95658.25
2019-06-01T23:02:53.044Z,95654.27
2019-06-01T23:05:22.995Z,95654.00
2019-06-01T23:07:52.053Z,95652.70
2019-06-01T23:10:26.330Z,95655.59
2019-06-01T23:12:51.571Z,95654.79
2019-06-01T23:15:21.407Z,95654.28
2019-06-01T23:17:50.479Z,95654.27
2019-06-01T23:20:19.267Z,95652.39
2019-06-01T23:22:48.159Z,95649.73
2019-06-01T23:25:16.949Z,95649.73
2019-06-01T23:27:45.739Z,95647.38
2019-06-01T23:30:14.731Z,95643.91
2019-06-01T23:32:43.622Z,95641.00
2019-06-01T23:35:13.974Z,95638.86
2019-06-01T23:37:42.842Z,95638.86
2019-06-01T23:40:12.551Z,95635.16
2019-06-01T23:42:41.441Z,95640.45
2019-06-01T23:45:11.426Z,95639.92
2019-06-01T23:47:40.247Z,95640.47
2019-06-01T23:50:11.787Z,95638.86
2019-06-01T23:52:40.567Z,95637.80
2019-06-01T23:55:09.794Z,95639.92
2019-06-01T23:57:38.677Z,95637.77
